EDLV/NRN METAR and TAF weather

Enter ICAO airport designator
Station Type Date Time Source
EDLV METAR 2018/01/21 12:20 UTC NOAA

EDLV 211220Z 25006KT 9999 FEW025 06/02 Q1015


Station Type Date Time Source
EDLV Decoded METAR 2018/01/21 12:20 UTC NOAA

Niederrhein, Germany (EDLV) 51-36-09N 006-08-32E
Jan 21, 2018 - 07:20 AM EST / 2018.01.21 1220 UTC
Wind: from the WSW (250 degrees) at 7 MPH (6 KT):0
Visibility: greater than 7 mile(s):0
Sky conditions: mostly clear
Temperature: 42 F (6 C)
Dew Point: 35 F (2 C)
Relative Humidity: 75%
Pressure (altimeter): 29.97 in. Hg (1015 hPa)
ob: EDLV 211220Z 25006KT 9999 FEW025 06/02 Q1015
cycle: 12

Station Type Date Time Source
EDLV TAF 2018/01/21 12:27 UTC NOAA

TAF EDLV 211100Z 2112/2212 26007KT 9999 FEW025
BECMG 2112/2115 20005KT
BECMG 2118/2120 14008KT
BECMG 2123/2202 BKN008
TEMPO 2200/2209 4000 -RA BKN004
BECMG 2203/2206 20007KT
BECMG 2208/2210 28006KT


Example: see airport list